createdAt,value
2019-02-10T00:00:44.690Z,100291.17
2019-02-10T00:03:13.192Z,100289.18
2019-02-10T00:05:41.645Z,100289.18
2019-02-10T00:08:10.157Z,100289.58
2019-02-10T00:10:38.616Z,100295.94
2019-02-10T00:13:26.079Z,100295.61
2019-02-10T00:15:55.124Z,100301.37
2019-02-10T00:18:24.294Z,100303.23
2019-02-10T00:20:52.757Z,100302.70
2019-02-10T00:23:21.266Z,100307.47
2019-02-10T00:25:49.729Z,100304.41
2019-02-10T00:28:18.265Z,100305.73
2019-02-10T00:30:46.739Z,100309.89
2019-02-10T00:33:15.204Z,100314.27
2019-02-10T00:35:43.701Z,100313.73
2019-02-10T00:38:12.136Z,100311.63
2019-02-10T00:40:40.622Z,100310.27
2019-02-10T00:43:09.076Z,100309.83
2019-02-10T00:45:37.558Z,100315.63
2019-02-10T00:48:06.100Z,100309.53
2019-02-10T00:50:34.581Z,100304.56
2019-02-10T00:53:03.032Z,100310.83
2019-02-10T00:55:31.509Z,100307.23
2019-02-10T00:57:59.966Z,100306.30
2019-02-10T01:00:28.444Z,100306.53
2019-02-10T01:02:56.949Z,100299.40
2019-02-10T01:05:25.436Z,100309.66
2019-02-10T01:07:53.996Z,100301.70
2019-02-10T01:10:25.342Z,100302.09
2019-02-10T01:12:53.862Z,100293.36
2019-02-10T01:15:22.336Z,100291.13
2019-02-10T01:17:50.810Z,100284.86
2019-02-10T01:20:19.355Z,100272.87
2019-02-10T01:22:47.814Z,100278.36
2019-02-10T01:25:16.368Z,100273.47
2019-02-10T01:27:44.822Z,100278.15
2019-02-10T01:30:15.248Z,100278.24
2019-02-10T01:32:43.832Z,100271.27
2019-02-10T01:35:12.499Z,100267.13
2019-02-10T01:37:40.999Z,100273.94
2019-02-10T01:40:11.044Z,100267.75
2019-02-10T01:42:39.491Z,100271.77
2019-02-10T01:45:10.798Z,100265.73
2019-02-10T01:47:39.324Z,100258.77
2019-02-10T01:50:10.272Z,100265.92
2019-02-10T01:52:38.783Z,100268.39
2019-02-10T01:55:12.557Z,100261.92
2019-02-10T01:57:41.015Z,100260.81
2019-02-10T02:00:12.412Z,100254.40
2019-02-10T02:02:40.886Z,100259.23
2019-02-10T02:05:09.627Z,100250.09
2019-02-10T02:07:38.084Z,100247.98
2019-02-10T02:10:12.489Z,100252.91
2019-02-10T02:12:41.220Z,100246.86
2019-02-10T02:15:12.762Z,100244.70
2019-02-10T02:17:41.282Z,100249.06
2019-02-10T02:20:11.298Z,100243.11
2019-02-10T02:22:39.749Z,100244.06
2019-02-10T02:25:11.278Z,100236.02
2019-02-10T02:27:39.811Z,100245.92
2019-02-10T02:30:10.912Z,100244.06
2019-02-10T02:32:39.366Z,100239.58
2019-02-10T02:35:07.929Z,100247.25
2019-02-10T02:37:36.372Z,100239.35
2019-02-10T02:40:07.096Z,100236.29
2019-02-10T02:42:35.553Z,100233.28
2019-02-10T02:45:04.612Z,100234.61
2019-02-10T02:47:33.065Z,100223.07
2019-02-10T02:50:01.541Z,100218.22
2019-02-10T02:52:29.990Z,100220.06
2019-02-10T02:54:58.484Z,100218.42
2019-02-10T02:57:26.952Z,100211.31
2019-02-10T02:59:55.445Z,100206.86
2019-02-10T03:02:23.918Z,100204.19
2019-02-10T03:04:52.368Z,100197.63
2019-02-10T03:07:20.866Z,100199.42
2019-02-10T03:09:49.340Z,100200.75
2019-02-10T03:12:17.806Z,100187.00
2019-02-10T03:14:46.262Z,100185.72
2019-02-10T03:17:14.773Z,100185.34
2019-02-10T03:19:43.233Z,100182.23
2019-02-10T03:22:11.734Z,100184.02
2019-02-10T03:24:40.197Z,100174.80
2019-02-10T03:27:08.697Z,100173.16
2019-02-10T03:29:37.163Z,100173.61
2019-02-10T03:32:05.781Z,100171.16
2019-02-10T03:34:34.291Z,100163.59
2019-02-10T03:37:02.781Z,100164.98
2019-02-10T03:39:31.239Z,100159.66
2019-02-10T03:41:59.752Z,100164.22
2019-02-10T03:44:28.196Z,100160.67
2019-02-10T03:46:56.698Z,100156.80
2019-02-10T03:49:25.134Z,100158.39
2019-02-10T03:51:53.645Z,100163.50
2019-02-10T03:54:22.173Z,100154.28
2019-02-10T03:56:50.649Z,100149.09
2019-02-10T03:59:19.117Z,100151.31
2019-02-10T04:01:47.697Z,100145.67
2019-02-10T04:04:16.160Z,100140.48
2019-02-10T04:06:46.300Z,100137.30
2019-02-10T04:09:14.776Z,100144.34
2019-02-10T04:11:43.255Z,100136.98
2019-02-10T04:14:11.733Z,100129.00
2019-02-10T04:16:40.214Z,100128.14
2019-02-10T04:19:08.679Z,100120.62
2019-02-10T04:21:37.165Z,100119.30
2019-02-10T04:24:05.655Z,100118.37
2019-02-10T04:26:34.139Z,100115.34
2019-02-10T04:29:02.592Z,100115.31
2019-02-10T04:31:31.076Z,100117.66
2019-02-10T04:33:59.547Z,100115.34
2019-02-10T04:36:28.028Z,100111.70
2019-02-10T04:38:56.480Z,100116.23
2019-02-10T04:41:24.959Z,100111.09
2019-02-10T04:43:53.423Z,100107.52
2019-02-10T04:46:21.913Z,100099.22
2019-02-10T04:48:50.385Z,100094.75
2019-02-10T04:51:18.852Z,100095.15
2019-02-10T04:53:47.296Z,100085.53
2019-02-10T04:56:16.907Z,100077.16
2019-02-10T04:58:45.386Z,100079.75
2019-02-10T05:01:13.879Z,100069.50
2019-02-10T05:03:42.353Z,100062.80
2019-02-10T05:06:10.833Z,100064.19
2019-02-10T05:08:39.277Z,100063.81
2019-02-10T05:11:07.803Z,100059.48
2019-02-10T05:13:36.298Z,100051.39
2019-02-10T05:16:04.779Z,100050.67
2019-02-10T05:18:33.245Z,100047.95
2019-02-10T05:21:01.689Z,100044.26
2019-02-10T05:23:30.166Z,100040.30
2019-02-10T05:25:58.649Z,100039.12
2019-02-10T05:28:27.131Z,100031.92
2019-02-10T05:30:55.658Z,100033.78
2019-02-10T05:33:24.142Z,100028.72
2019-02-10T05:35:52.615Z,100022.39
2019-02-10T05:38:21.113Z,100022.48
2019-02-10T05:40:49.575Z,100012.22
2019-02-10T05:43:18.065Z,100008.63
2019-02-10T05:45:46.513Z,100004.50
2019-02-10T05:48:14.982Z,99996.18
2019-02-10T05:50:43.439Z,99989.88
2019-02-10T05:53:11.918Z,99998.06
2019-02-10T05:55:40.374Z,99976.41
2019-02-10T05:58:08.867Z,99966.17
2019-02-10T06:00:37.328Z,99967.80
2019-02-10T06:03:05.808Z,99958.91
2019-02-10T06:05:34.280Z,99957.17
2019-02-10T06:08:02.756Z,99949.01
2019-02-10T06:10:31.217Z,99947.55
2019-02-10T06:12:59.702Z,99935.25
2019-02-10T06:15:28.167Z,99940.41
2019-02-10T06:17:56.653Z,99925.78
2019-02-10T06:20:25.112Z,99934.92
2019-02-10T06:22:53.590Z,99926.18
2019-02-10T06:25:22.052Z,99932.66
2019-02-10T06:27:50.577Z,99927.98
2019-02-10T06:30:19.150Z,99919.44
2019-02-10T06:32:47.586Z,99920.20
2019-02-10T06:35:16.043Z,99913.09
2019-02-10T06:37:45.097Z,99903.25
2019-02-10T06:40:13.599Z,99910.33
2019-02-10T06:42:42.108Z,99904.02
2019-02-10T06:45:11.329Z,99903.25
2019-02-10T06:47:39.809Z,99900.48
2019-02-10T06:50:08.803Z,99900.39
2019-02-10T06:52:37.283Z,99906.97
2019-02-10T06:55:08.377Z,99904.27
2019-02-10T06:57:36.874Z,99898.09
2019-02-10T07:00:16.664Z,99893.94
2019-02-10T07:03:21.352Z,99890.45
2019-02-10T07:05:49.818Z,99883.23
2019-02-10T07:08:18.313Z,99878.77
2019-02-10T07:10:46.781Z,99872.13
2019-02-10T07:13:18.313Z,99866.63
2019-02-10T07:16:23.075Z,99857.25
2019-02-10T07:19:28.118Z,99849.66
2019-02-10T07:21:56.639Z,99847.91
2019-02-10T07:24:47.000Z,99849.52
2019-02-10T07:27:18.654Z,99838.91
2019-02-10T07:30:05.185Z,99829.97
2019-02-10T07:32:42.561Z,99831.69
2019-02-10T07:35:29.153Z,99824.47
2019-02-10T07:38:19.075Z,99819.94
2019-02-10T07:40:59.492Z,99809.25
2019-02-10T07:43:33.525Z,99807.34
2019-02-10T07:46:24.624Z,99790.84
2019-02-10T07:49:05.201Z,99780.16
2019-02-10T07:51:39.342Z,99770.84
2019-02-10T07:54:28.998Z,99768.39
2019-02-10T07:57:00.498Z,99772.31
2019-02-10T07:59:34.751Z,99763.28
2019-02-10T08:02:27.234Z,99771.55
2019-02-10T08:05:07.666Z,99768.65
2019-02-10T08:08:07.259Z,99753.07
2019-02-10T08:11:01.315Z,99751.23
2019-02-10T08:13:38.498Z,99747.09
2019-02-10T08:16:35.024Z,99745.64
2019-02-10T08:19:21.706Z,99746.97
2019-02-10T08:22:26.402Z,99736.98
2019-02-10T08:25:00.597Z,99722.89
2019-02-10T08:27:37.691Z,99726.69
2019-02-10T08:30:33.089Z,99715.92
2019-02-10T08:33:13.390Z,99713.73
2019-02-10T08:35:44.947Z,99705.61
2019-02-10T08:38:39.190Z,99694.77
2019-02-10T08:41:33.294Z,99686.50
2019-02-10T08:44:30.734Z,99679.89
2019-02-10T08:47:04.895Z,99667.39
2019-02-10T08:50:02.408Z,99647.81
2019-02-10T08:52:42.804Z,99635.95
2019-02-10T08:55:11.299Z,99625.59
2019-02-10T08:57:39.760Z,99620.00
2019-02-10T09:00:11.206Z,99608.41
2019-02-10T09:02:39.666Z,99585.44
2019-02-10T09:05:08.683Z,99575.39
2019-02-10T09:07:37.142Z,99576.41
2019-02-10T09:10:13.103Z,99563.41
2019-02-10T09:12:41.553Z,99561.16
2019-02-10T09:15:12.151Z,99549.78
2019-02-10T09:17:40.639Z,99537.08
2019-02-10T09:20:11.064Z,99535.87
2019-02-10T09:22:39.531Z,99526.30
2019-02-10T09:25:10.749Z,99508.95
2019-02-10T09:27:39.249Z,99492.98
2019-02-10T09:30:15.084Z,99485.05
2019-02-10T09:32:43.534Z,99471.99
2019-02-10T09:35:12.016Z,99468.39
2019-02-10T09:37:40.522Z,99461.04
2019-02-10T09:40:11.541Z,99448.59
2019-02-10T09:42:39.995Z,99444.39
2019-02-10T09:45:12.805Z,99438.20
2019-02-10T09:47:41.265Z,99422.23
2019-02-10T09:50:15.695Z,99407.17
2019-02-10T09:52:44.153Z,99405.33
2019-02-10T09:55:12.617Z,99397.73
2019-02-10T09:57:41.100Z,99383.64
2019-02-10T10:00:12.361Z,99383.78
2019-02-10T10:02:40.846Z,99371.11
2019-02-10T10:05:11.886Z,99367.81
2019-02-10T10:07:40.439Z,99360.77
2019-02-10T10:10:11.452Z,99344.11
2019-02-10T10:12:39.947Z,99346.38
2019-02-10T10:15:16.632Z,99334.70
2019-02-10T10:17:45.113Z,99317.41
2019-02-10T10:20:16.639Z,99309.50
2019-02-10T10:22:45.118Z,99312.41
2019-02-10T10:25:13.620Z,99294.48
2019-02-10T10:27:42.081Z,99287.13
2019-02-10T10:30:19.373Z,99285.94
2019-02-10T10:32:47.851Z,99262.61
2019-02-10T10:35:16.313Z,99250.20
2019-02-10T10:37:44.812Z,99230.53
2019-02-10T10:40:13.435Z,99234.47
2019-02-10T10:42:41.928Z,99227.34
2019-02-10T10:45:13.193Z,99215.75
2019-02-10T10:47:41.684Z,99196.31
2019-02-10T10:50:12.099Z,99196.64
2019-02-10T10:52:40.588Z,99188.13
2019-02-10T10:55:10.906Z,99180.99
2019-02-10T10:57:39.413Z,99161.80
2019-02-10T11:00:17.699Z,99156.64
2019-02-10T11:02:46.181Z,99146.38
2019-02-10T11:05:15.007Z,99143.24
2019-02-10T11:07:43.609Z,99149.37
2019-02-10T11:10:15.199Z,99137.67
2019-02-10T11:12:43.678Z,99130.55
2019-02-10T11:15:14.279Z,99115.36
2019-02-10T11:17:42.762Z,99110.33
2019-02-10T11:20:12.283Z,99104.70
2019-02-10T11:22:40.769Z,99097.95
2019-02-10T11:25:11.410Z,99086.19
2019-02-10T11:27:39.893Z,99076.33
2019-02-10T11:30:16.089Z,99073.32
2019-02-10T11:32:44.564Z,99073.48
2019-02-10T11:35:13.389Z,99059.59
2019-02-10T11:37:41.871Z,99054.95
2019-02-10T11:40:13.939Z,99041.31
2019-02-10T11:42:42.423Z,99052.73
2019-02-10T11:45:13.378Z,99037.22
2019-02-10T11:47:41.871Z,99028.21
2019-02-10T11:50:14.146Z,99004.34
2019-02-10T11:52:42.642Z,99009.13
2019-02-10T11:55:12.139Z,99010.20
2019-02-10T11:57:40.620Z,98973.58
2019-02-10T12:00:14.799Z,98985.00
2019-02-10T12:02:43.332Z,98987.39
2019-02-10T12:05:12.067Z,98982.06
2019-02-10T12:07:40.548Z,98968.02
2019-02-10T12:10:11.306Z,98977.25
2019-02-10T12:12:39.785Z,98968.23
2019-02-10T12:15:17.293Z,98958.70
2019-02-10T12:17:45.762Z,98946.05
2019-02-10T12:20:16.433Z,98947.38
2019-02-10T12:22:50.328Z,98931.80
2019-02-10T12:25:16.169Z,98929.78
2019-02-10T12:27:45.435Z,98925.78
2019-02-10T12:30:15.232Z,98924.27
2019-02-10T12:32:43.792Z,98916.66
2019-02-10T12:35:12.943Z,98901.06
2019-02-10T12:37:41.430Z,98894.39
2019-02-10T12:40:11.520Z,98888.41
2019-02-10T12:42:40.024Z,98880.95
2019-02-10T12:45:10.422Z,98865.26
2019-02-10T12:47:38.904Z,98862.19
2019-02-10T12:50:16.885Z,98859.16
2019-02-10T12:52:45.342Z,98854.78
2019-02-10T12:55:13.998Z,98843.81
2019-02-10T12:57:42.509Z,98842.30
2019-02-10T13:00:18.349Z,98838.20
2019-02-10T13:02:46.831Z,98831.91
2019-02-10T13:05:15.304Z,98826.77
2019-02-10T13:07:43.781Z,98817.64
2019-02-10T13:10:17.378Z,98811.17
2019-02-10T13:12:44.955Z,98809.05
2019-02-10T13:15:13.989Z,98805.36
2019-02-10T13:17:42.434Z,98791.16
2019-02-10T13:20:12.351Z,98783.91
2019-02-10T13:22:40.813Z,98785.43
2019-02-10T13:25:11.124Z,98779.91
2019-02-10T13:27:39.568Z,98773.35
2019-02-10T13:30:20.036Z,98766.28
2019-02-10T13:32:48.474Z,98759.13
2019-02-10T13:35:16.961Z,98755.98
2019-02-10T13:37:45.428Z,98753.50
2019-02-10T13:40:17.144Z,98748.35
2019-02-10T13:42:45.851Z,98745.98
2019-02-10T13:45:14.329Z,98740.94
2019-02-10T13:47:42.804Z,98737.01
2019-02-10T13:50:18.597Z,98736.08
2019-02-10T13:52:47.122Z,98725.00
2019-02-10T13:55:16.552Z,98720.81
2019-02-10T13:57:45.005Z,98725.41
2019-02-10T14:00:21.475Z,98725.11
2019-02-10T14:02:49.917Z,98712.81
2019-02-10T14:05:18.408Z,98713.22
2019-02-10T14:07:46.862Z,98711.58
2019-02-10T14:10:24.978Z,98707.66
2019-02-10T14:12:47.511Z,98702.55
2019-02-10T14:15:17.337Z,98690.91
2019-02-10T14:17:45.787Z,98692.98
2019-02-10T14:20:18.306Z,98681.09
2019-02-10T14:22:46.766Z,98693.64
2019-02-10T14:25:15.471Z,98694.61
2019-02-10T14:27:43.943Z,98690.49
2019-02-10T14:30:17.827Z,98682.90
2019-02-10T14:32:46.283Z,98681.38
2019-02-10T14:35:14.754Z,98679.82
2019-02-10T14:37:43.192Z,98674.59
2019-02-10T14:40:11.923Z,98665.81
2019-02-10T14:42:40.373Z,98662.30
2019-02-10T14:45:12.968Z,98664.03
2019-02-10T14:47:41.696Z,98662.22
2019-02-10T14:50:17.793Z,98656.48
2019-02-10T14:52:46.241Z,98654.88
2019-02-10T14:55:14.729Z,98651.63
2019-02-10T14:57:43.194Z,98645.55
2019-02-10T15:00:14.077Z,98637.91
2019-02-10T15:02:42.525Z,98634.68
2019-02-10T15:05:11.076Z,98628.20
2019-02-10T15:07:39.630Z,98625.91
2019-02-10T15:10:16.540Z,98623.60
2019-02-10T15:12:44.992Z,98614.27
2019-02-10T15:15:13.457Z,98607.82
2019-02-10T15:17:41.918Z,98614.69
2019-02-10T15:20:11.834Z,98600.02
2019-02-10T15:22:40.352Z,98593.88
2019-02-10T15:25:13.857Z,98595.46
2019-02-10T15:27:42.391Z,98590.08
2019-02-10T15:30:16.134Z,98583.72
2019-02-10T15:32:44.581Z,98576.56
2019-02-10T15:35:13.133Z,98574.49
2019-02-10T15:37:41.574Z,98572.30
2019-02-10T15:40:13.641Z,98564.08
2019-02-10T15:42:42.107Z,98566.29
2019-02-10T15:45:12.444Z,98556.95
2019-02-10T15:47:40.894Z,98555.22
2019-02-10T15:50:13.681Z,98549.88
2019-02-10T15:52:42.134Z,98545.14
2019-02-10T15:55:14.422Z,98542.48
2019-02-10T15:57:42.881Z,98540.00
2019-02-10T16:00:17.539Z,98537.70
2019-02-10T16:02:45.989Z,98532.12
2019-02-10T16:05:14.518Z,98528.97
2019-02-10T16:07:43.024Z,98522.86
2019-02-10T16:10:12.075Z,98525.53
2019-02-10T16:12:40.694Z,98517.76
2019-02-10T16:15:11.576Z,98517.36
2019-02-10T16:17:40.029Z,98515.17
2019-02-10T16:20:11.770Z,98502.12
2019-02-10T16:22:40.255Z,98503.09
2019-02-10T16:25:09.351Z,98498.31
2019-02-10T16:27:37.830Z,98498.69
2019-02-10T16:30:09.307Z,98494.80
2019-02-10T16:32:37.768Z,98490.20
2019-02-10T16:35:07.473Z,98488.50
2019-02-10T16:37:35.956Z,98483.08
2019-02-10T16:40:07.000Z,98477.83
2019-02-10T16:42:35.476Z,98475.81
2019-02-10T16:45:04.410Z,98474.11
2019-02-10T16:47:32.913Z,98466.28
2019-02-10T16:50:01.370Z,98475.41
2019-02-10T16:52:29.853Z,98469.20
2019-02-10T16:54:58.325Z,98476.15
2019-02-10T16:57:26.784Z,98461.84
2019-02-10T16:59:55.264Z,98465.64
2019-02-10T17:02:23.741Z,98460.31
2019-02-10T17:04:52.192Z,98461.33
2019-02-10T17:07:20.683Z,98459.02
2019-02-10T17:09:49.170Z,98451.02
2019-02-10T17:12:17.667Z,98453.60
2019-02-10T17:14:46.126Z,98445.59
2019-02-10T17:17:14.637Z,98441.76
2019-02-10T17:19:43.109Z,98442.24
2019-02-10T17:22:11.601Z,98444.95
2019-02-10T17:24:40.064Z,98443.41
2019-02-10T17:27:08.565Z,98445.32
2019-02-10T17:29:37.039Z,98442.45
2019-02-10T17:32:05.526Z,98439.21
2019-02-10T17:34:33.991Z,98438.61
2019-02-10T17:37:02.524Z,98433.43
2019-02-10T17:39:30.999Z,98437.91
2019-02-10T17:41:59.485Z,98448.47
2019-02-10T17:44:27.927Z,98443.53
2019-02-10T17:46:56.413Z,98435.08
2019-02-10T17:49:24.891Z,98435.45
2019-02-10T17:51:53.373Z,98431.63
2019-02-10T17:54:21.827Z,98439.80
2019-02-10T17:56:50.302Z,98439.23
2019-02-10T17:59:18.783Z,98435.34
2019-02-10T18:01:47.303Z,98437.89
2019-02-10T18:04:15.779Z,98442.26
2019-02-10T18:06:44.266Z,98444.56
2019-02-10T18:09:12.746Z,98436.71
2019-02-10T18:11:41.202Z,98438.81
2019-02-10T18:14:11.325Z,98452.89
2019-02-10T18:16:44.410Z,98452.08
2019-02-10T18:19:17.296Z,98454.02
2019-02-10T18:21:47.399Z,98440.66
2019-02-10T18:24:32.314Z,98436.33
2019-02-10T18:27:18.874Z,98440.21
2019-02-10T18:29:49.010Z,98454.91
2019-02-10T18:32:19.112Z,98450.05
2019-02-10T18:34:52.418Z,98452.14
2019-02-10T18:37:34.803Z,98467.68
2019-02-10T18:40:07.713Z,98476.06
2019-02-10T18:42:49.580Z,98474.72
2019-02-10T18:45:19.700Z,98472.05
2019-02-10T18:47:49.793Z,98490.02
2019-02-10T18:50:22.568Z,98499.37
2019-02-10T18:52:52.683Z,98506.13
2019-02-10T18:55:38.058Z,98496.54
2019-02-10T18:58:10.916Z,98498.81
2019-02-10T19:00:46.776Z,98506.45
2019-02-10T19:03:16.908Z,98503.22
2019-02-10T19:05:47.009Z,98513.50
2019-02-10T19:08:32.185Z,98504.75
2019-02-10T19:11:16.891Z,98510.09
2019-02-10T19:13:49.964Z,98503.95
2019-02-10T19:16:20.063Z,98493.87
2019-02-10T19:19:04.934Z,98504.06
2019-02-10T19:21:50.369Z,98504.84
2019-02-10T19:24:20.503Z,98507.06
2019-02-10T19:27:07.020Z,98508.84
2019-02-10T19:29:52.196Z,98499.30
2019-02-10T19:32:34.471Z,98504.75
2019-02-10T19:35:13.603Z,98506.66
2019-02-10T19:37:43.698Z,98494.64
2019-02-10T19:40:16.519Z,98499.41
2019-02-10T19:42:52.541Z,98512.16
2019-02-10T19:45:38.735Z,98520.41
2019-02-10T19:48:17.713Z,98504.23
2019-02-10T19:50:47.887Z,98499.30
2019-02-10T19:53:20.566Z,98510.67
2019-02-10T19:55:53.452Z,98503.75
2019-02-10T19:58:29.458Z,98508.69
2019-02-10T20:00:59.571Z,98512.24
2019-02-10T20:03:45.951Z,98510.99
2019-02-10T20:06:16.092Z,98515.12
2019-02-10T20:08:48.919Z,98513.38
2019-02-10T20:11:19.025Z,98498.61
2019-02-10T20:13:49.153Z,98507.59
2019-02-10T20:16:19.262Z,98510.27
2019-02-10T20:18:49.461Z,98512.00
2019-02-10T20:21:22.605Z,98500.75
2019-02-10T20:24:09.174Z,98499.95
2019-02-10T20:26:57.326Z,98499.83
2019-02-10T20:29:43.775Z,98512.77
2019-02-10T20:32:13.898Z,98521.63
2019-02-10T20:34:44.080Z,98516.13
2019-02-10T20:37:20.283Z,98523.66
2019-02-10T20:39:59.010Z,98522.80
2019-02-10T20:42:29.102Z,98528.99
2019-02-10T20:45:15.483Z,98518.03
2019-02-10T20:47:48.243Z,98504.69
2019-02-10T20:50:21.054Z,98517.75
2019-02-10T20:52:57.070Z,98523.01
2019-02-10T20:55:27.201Z,98528.63
2019-02-10T20:58:00.017Z,98527.49
2019-02-10T21:00:46.313Z,98549.50
2019-02-10T21:03:16.413Z,98546.44
2019-02-10T21:05:52.378Z,98560.92
2019-02-10T21:08:34.228Z,98558.69
2019-02-10T21:11:07.160Z,98545.70
2019-02-10T21:13:46.546Z,98545.33
2019-02-10T21:19:13.924Z,98535.50
2019-02-10T21:21:59.334Z,98542.42
2019-02-10T21:24:45.636Z,98546.72
2019-02-10T21:27:27.712Z,98547.20
2019-02-10T21:30:03.583Z,98555.21
2019-02-10T21:32:49.552Z,98556.18
2019-02-10T21:35:31.545Z,98556.18
2019-02-10T21:38:07.377Z,98559.13
2019-02-10T21:40:37.501Z,98558.48
2019-02-10T21:43:07.600Z,98556.50
2019-02-10T21:45:46.400Z,98559.65
2019-02-10T21:48:17.541Z,98560.53
2019-02-10T21:50:46.076Z,98548.06
2019-02-10T21:53:14.529Z,98560.56
2019-02-10T21:55:42.979Z,98546.37
2019-02-10T21:58:11.466Z,98547.53
2019-02-10T22:00:39.915Z,98551.19
2019-02-10T22:03:08.398Z,98550.83
2019-02-10T22:05:36.850Z,98548.01
2019-02-10T22:08:05.336Z,98552.44
2019-02-10T22:10:33.796Z,98547.64
2019-02-10T22:13:02.285Z,98540.86
2019-02-10T22:15:30.736Z,98540.20
2019-02-10T22:17:59.223Z,98535.27
2019-02-10T22:20:27.668Z,98542.98
2019-02-10T22:22:56.149Z,98544.47
2019-02-10T22:25:24.608Z,98555.20
2019-02-10T22:27:53.133Z,98558.66
2019-02-10T22:30:21.602Z,98560.85
2019-02-10T22:32:50.129Z,98562.41
2019-02-10T22:35:18.527Z,98557.83
2019-02-10T22:37:47.019Z,98561.56
2019-02-10T22:40:15.470Z,98561.81
2019-02-10T22:42:45.947Z,98573.81
2019-02-10T22:45:14.143Z,98571.56
2019-02-10T22:47:42.632Z,98579.82
2019-02-10T22:50:14.757Z,98579.94
2019-02-10T22:52:43.281Z,98575.16
2019-02-10T22:55:11.810Z,98572.67
2019-02-10T22:57:41.238Z,98580.30
2019-02-10T23:00:38.854Z,98560.90
2019-02-10T23:03:07.516Z,98564.50
2019-02-10T23:05:36.003Z,98556.91
2019-02-10T23:08:04.557Z,98559.58
2019-02-10T23:10:35.802Z,98550.98
2019-02-10T23:13:04.282Z,98552.14
2019-02-10T23:15:32.733Z,98555.66
2019-02-10T23:18:01.221Z,98558.25
2019-02-10T23:20:29.698Z,98546.06
2019-02-10T23:22:58.154Z,98552.55
2019-02-10T23:25:26.620Z,98542.63
2019-02-10T23:27:55.072Z,98546.63
2019-02-10T23:30:23.559Z,98539.59
2019-02-10T23:32:52.005Z,98550.26
2019-02-10T23:35:20.487Z,98543.59
2019-02-10T23:37:48.951Z,98549.30
2019-02-10T23:40:17.436Z,98543.88
2019-02-10T23:42:45.885Z,98549.89
2019-02-10T23:45:14.383Z,98548.92
2019-02-10T23:47:42.823Z,98546.14
2019-02-10T23:50:11.303Z,98553.52
2019-02-10T23:52:39.788Z,98570.47
2019-02-10T23:55:08.334Z,98559.04
2019-02-10T23:57:36.778Z,98562.85
